createdAt,value
2022-10-20T00:00:55.817Z,16.48
2022-10-20T00:03:07.490Z,16.27
2022-10-20T00:05:15.291Z,15.43
2022-10-20T00:07:23.192Z,17.45
2022-10-20T00:09:30.890Z,17.27
2022-10-20T00:11:38.893Z,21.52
2022-10-20T00:13:50.493Z,17.27
2022-10-20T00:15:59.585Z,15.68
2022-10-20T00:18:10.131Z,17.50
2022-10-20T00:20:17.840Z,15.20
2022-10-20T00:22:25.578Z,15.48
2022-10-20T00:24:33.319Z,16.95
2022-10-20T00:26:41.435Z,18.52
2022-10-20T00:28:49.859Z,16.13
2022-10-20T00:30:58.710Z,17.33
2022-10-20T00:33:09.636Z,17.42
2022-10-20T00:35:18.147Z,16.58
2022-10-20T00:37:27.944Z,17.52
2022-10-20T00:39:36.611Z,17.80
2022-10-20T00:41:44.878Z,22.08
2022-10-20T00:43:55.460Z,17.77
2022-10-20T00:46:03.374Z,17.80
2022-10-20T00:48:18.806Z,18.63
2022-10-20T00:50:29.523Z,18.08
2022-10-20T00:52:38.305Z,17.33
2022-10-20T00:54:46.625Z,17.95
2022-10-20T00:56:56.062Z,16.67
2022-10-20T00:59:05.525Z,18.67
2022-10-20T01:01:15.910Z,18.33
2022-10-20T01:03:30.485Z,17.70
2022-10-20T01:05:38.785Z,21.15
2022-10-20T01:07:46.638Z,15.35
2022-10-20T01:09:54.885Z,15.82
2022-10-20T01:12:14.902Z,15.52
2022-10-20T01:14:36.612Z,15.85
2022-10-20T01:16:53.360Z,16.58
2022-10-20T01:19:15.659Z,17.02
2022-10-20T01:21:41.789Z,16.60
2022-10-20T01:24:03.647Z,17.67
2022-10-20T01:26:41.044Z,20.65
2022-10-20T01:28:58.798Z,18.27
2022-10-20T01:31:15.296Z,17.35
2022-10-20T01:33:31.422Z,17.48
2022-10-20T01:35:53.185Z,17.83
2022-10-20T01:38:09.603Z,17.65
2022-10-20T01:40:24.781Z,18.17
2022-10-20T01:42:32.791Z,16.48
2022-10-20T01:44:45.198Z,15.10
2022-10-20T01:46:54.205Z,15.55
2022-10-20T01:49:04.390Z,16.92
2022-10-20T01:51:13.763Z,15.43
2022-10-20T01:53:23.018Z,16.35
2022-10-20T01:55:32.962Z,22.48
2022-10-20T01:57:52.986Z,16.77
2022-10-20T02:00:11.300Z,18.52
2022-10-20T02:02:44.871Z,17.80
2022-10-20T02:05:10.962Z,19.15
2022-10-20T02:07:27.993Z,17.92
2022-10-20T02:09:42.621Z,18.48
2022-10-20T02:11:59.075Z,16.70
2022-10-20T02:14:09.092Z,16.08
2022-10-20T02:16:24.032Z,21.00
2022-10-20T02:18:36.461Z,16.55
2022-10-20T02:20:47.079Z,16.02
2022-10-20T02:22:55.506Z,19.90
2022-10-20T02:25:03.955Z,17.20
2022-10-20T02:27:16.279Z,23.58
2022-10-20T02:29:32.642Z,18.30
2022-10-20T02:31:43.180Z,19.42
2022-10-20T02:33:51.676Z,19.38
2022-10-20T02:36:01.665Z,19.98
2022-10-20T02:38:09.577Z,19.67
2022-10-20T02:40:17.397Z,22.63
2022-10-20T02:42:25.191Z,20.30
2022-10-20T02:44:33.255Z,21.50
2022-10-20T02:46:44.546Z,19.33
2022-10-20T02:48:52.263Z,23.77
2022-10-20T02:51:00.683Z,20.17
2022-10-20T02:53:08.817Z,19.00
2022-10-20T02:57:44.812Z,23.65
2022-10-20T02:59:52.848Z,21.33
2022-10-20T03:02:03.819Z,20.02
2022-10-20T03:04:12.467Z,22.40
2022-10-20T03:06:20.584Z,21.02
2022-10-20T03:08:28.463Z,20.65
2022-10-20T03:10:37.671Z,21.23
2022-10-20T03:12:45.736Z,22.27
2022-10-20T03:14:53.436Z,23.33
2022-10-20T03:17:04.760Z,22.10
2022-10-20T03:19:12.778Z,20.95
2022-10-20T03:21:20.854Z,22.38
2022-10-20T03:23:28.987Z,20.20
2022-10-20T03:25:36.755Z,20.63
2022-10-20T03:27:44.683Z,21.55
2022-10-20T03:29:52.700Z,22.92
2022-10-20T03:32:03.343Z,21.65
2022-10-20T03:34:13.618Z,22.55
2022-10-20T03:36:22.184Z,21.27
2022-10-20T03:38:30.257Z,20.58
2022-10-20T03:40:38.215Z,22.02
2022-10-20T03:42:46.011Z,24.42
2022-10-20T03:44:53.702Z,22.08
2022-10-20T03:47:04.065Z,21.17
2022-10-20T03:49:12.345Z,21.70
2022-10-20T03:51:20.285Z,23.83
2022-10-20T03:53:28.574Z,23.00
2022-10-20T03:55:36.475Z,24.50
2022-10-20T03:57:44.232Z,23.60
2022-10-20T03:59:52.329Z,27.13
2022-10-20T04:02:00.221Z,26.90
2022-10-20T04:04:12.158Z,24.38
2022-10-20T04:06:20.163Z,22.77
2022-10-20T04:08:28.166Z,29.00
2022-10-20T04:10:36.399Z,23.48
2022-10-20T04:12:44.945Z,22.83
2022-10-20T04:14:53.124Z,23.50
2022-10-20T04:17:00.819Z,22.38
2022-10-20T04:19:11.267Z,26.42
2022-10-20T04:21:19.610Z,25.83
2022-10-20T04:23:27.825Z,26.20
2022-10-20T04:25:35.960Z,22.35
2022-10-20T04:27:44.507Z,27.17
2022-10-20T04:29:52.750Z,23.00
2022-10-20T04:32:00.691Z,26.67
2022-10-20T04:34:11.357Z,29.35
2022-10-20T04:36:19.037Z,23.45
2022-10-20T04:38:30.803Z,23.10
2022-10-20T04:40:38.631Z,28.95
2022-10-20T04:42:46.959Z,26.05
2022-10-20T04:44:54.745Z,27.80
2022-10-20T04:47:02.575Z,24.55
2022-10-20T04:49:13.537Z,28.50
2022-10-20T04:51:21.937Z,22.75
2022-10-20T04:53:29.923Z,26.73
2022-10-20T04:55:37.851Z,21.92
2022-10-20T04:57:45.810Z,20.58
2022-10-20T04:59:53.902Z,24.65
2022-10-20T05:02:02.042Z,23.02
2022-10-20T05:04:13.502Z,26.58
2022-10-20T05:06:23.862Z,22.88
2022-10-20T05:08:31.909Z,21.88
2022-10-20T05:10:39.726Z,23.70
2022-10-20T05:12:47.464Z,26.75
2022-10-20T05:14:55.258Z,25.90
2022-10-20T05:17:05.250Z,27.98
2022-10-20T05:19:29.260Z,28.85
2022-10-20T05:21:37.075Z,23.75
2022-10-20T05:23:45.642Z,24.02
2022-10-20T05:25:53.621Z,25.25
2022-10-20T05:28:01.395Z,23.45
2022-10-20T05:30:10.717Z,24.45
2022-10-20T05:32:18.476Z,27.88
2022-10-20T05:34:29.049Z,25.95
2022-10-20T05:36:37.278Z,24.80
2022-10-20T05:38:45.440Z,21.98
2022-10-20T05:40:53.518Z,25.60
2022-10-20T05:43:01.563Z,24.33
2022-10-20T05:45:11.459Z,23.75
2022-10-20T05:47:19.509Z,26.75
2022-10-20T05:49:30.132Z,25.60
2022-10-20T05:51:39.475Z,23.77
2022-10-20T05:53:48.168Z,25.25
2022-10-20T05:55:55.816Z,22.58
2022-10-20T05:58:03.603Z,23.48
2022-10-20T06:00:16.063Z,24.58
2022-10-20T06:02:24.451Z,24.30
2022-10-20T06:04:35.059Z,21.73
2022-10-20T06:06:44.198Z,22.55
2022-10-20T06:08:52.270Z,22.25
2022-10-20T06:11:00.545Z,18.80
2022-10-20T06:13:08.554Z,19.75
2022-10-20T06:15:16.422Z,17.08
2022-10-20T06:17:24.941Z,19.33
2022-10-20T06:19:35.574Z,19.08
2022-10-20T06:24:14.189Z,21.83
2022-10-20T06:26:23.530Z,19.80
2022-10-20T06:28:35.822Z,18.20
2022-10-20T06:30:43.704Z,17.55
2022-10-20T06:32:56.287Z,18.40
2022-10-20T06:35:07.542Z,16.15
2022-10-20T06:37:15.710Z,17.38
2022-10-20T06:39:26.396Z,19.63
2022-10-20T06:41:35.285Z,18.30
2022-10-20T06:43:43.317Z,14.30
2022-10-20T06:45:57.718Z,16.70
2022-10-20T06:48:05.635Z,14.55
2022-10-20T06:50:16.825Z,16.00
2022-10-20T06:52:24.687Z,15.65
2022-10-20T06:54:33.744Z,13.70
2022-10-20T06:56:43.129Z,15.35
2022-10-20T06:58:52.727Z,13.27
2022-10-20T07:01:06.937Z,13.02
2022-10-20T07:03:19.594Z,13.52
2022-10-20T07:05:30.203Z,15.07
2022-10-20T07:07:38.214Z,13.93
2022-10-20T07:09:46.194Z,13.35
2022-10-20T07:11:54.703Z,12.95
2022-10-20T07:14:03.896Z,13.73
2022-10-20T07:16:14.721Z,13.43
2022-10-20T07:18:22.542Z,13.40
2022-10-20T07:20:33.011Z,14.27
2022-10-20T07:22:40.765Z,13.95
2022-10-20T07:24:48.511Z,13.75
2022-10-20T07:26:56.371Z,14.80
2022-10-20T07:29:05.119Z,13.70
2022-10-20T07:31:16.275Z,11.15
2022-10-20T07:33:24.497Z,12.10
2022-10-20T07:35:35.814Z,14.75
2022-10-20T07:37:43.539Z,12.27
2022-10-20T07:39:51.637Z,12.63
2022-10-20T07:42:00.056Z,11.90
2022-10-20T07:44:08.708Z,13.23
2022-10-20T07:46:17.193Z,12.38
2022-10-20T07:48:25.308Z,12.98
2022-10-20T07:50:36.835Z,11.90
2022-10-20T07:52:44.988Z,11.05
2022-10-20T07:55:02.490Z,11.70
2022-10-20T07:57:20.718Z,11.38
2022-10-20T07:59:29.724Z,10.80
2022-10-20T08:01:38.524Z,11.00
2022-10-20T08:03:46.442Z,9.80
2022-10-20T08:05:57.291Z,9.93
2022-10-20T08:08:05.320Z,9.63
2022-10-20T08:10:13.743Z,10.73
2022-10-20T08:12:21.766Z,10.45
2022-10-20T08:14:32.096Z,10.68
2022-10-20T08:19:07.712Z,10.20
2022-10-20T08:21:20.286Z,9.07
2022-10-20T08:23:28.490Z,10.60
2022-10-20T08:25:36.452Z,8.88
2022-10-20T08:27:44.615Z,9.23
2022-10-20T08:30:00.234Z,8.43
2022-10-20T08:32:20.456Z,8.15
2022-10-20T08:34:28.847Z,8.88
2022-10-20T08:36:39.636Z,8.90
2022-10-20T08:38:47.509Z,8.20
2022-10-20T08:40:55.350Z,8.05
2022-10-20T08:43:03.311Z,8.02
2022-10-20T08:45:19.286Z,7.97
2022-10-20T08:47:33.299Z,9.23
2022-10-20T08:49:41.944Z,9.68
2022-10-20T08:51:52.649Z,7.55
2022-10-20T08:54:03.156Z,7.55
2022-10-20T08:56:17.820Z,8.50
2022-10-20T08:58:27.781Z,8.05
2022-10-20T09:00:49.602Z,7.47
2022-10-20T09:02:57.748Z,7.57
2022-10-20T09:05:07.953Z,7.20
2022-10-20T09:07:27.010Z,7.45
2022-10-20T09:09:36.509Z,7.07
2022-10-20T09:11:44.803Z,7.60
2022-10-20T09:13:53.269Z,6.72
2022-10-20T09:16:04.222Z,6.93
2022-10-20T09:18:17.282Z,6.45
2022-10-20T09:20:28.837Z,6.43
2022-10-20T09:22:39.774Z,6.00
2022-10-20T09:24:49.026Z,5.55
2022-10-20T09:26:59.520Z,6.57
2022-10-20T09:29:14.170Z,7.07
2022-10-20T09:31:27.478Z,6.57
2022-10-20T09:33:37.813Z,6.60
2022-10-20T09:35:45.661Z,6.55
2022-10-20T09:38:00.941Z,6.82
2022-10-20T09:40:17.001Z,6.20
2022-10-20T09:42:28.668Z,6.20
2022-10-20T09:44:41.814Z,6.88
2022-10-20T09:46:53.686Z,6.63
2022-10-20T09:49:01.936Z,7.63
2022-10-20T09:51:16.395Z,6.78
2022-10-20T09:53:29.561Z,7.60
2022-10-20T09:55:42.575Z,7.90
2022-10-20T09:57:51.489Z,7.28
2022-10-20T10:00:04.647Z,6.60
2022-10-20T10:02:47.920Z,7.72
2022-10-20T10:04:57.425Z,7.22
2022-10-20T10:07:07.374Z,7.07
2022-10-20T10:09:34.709Z,7.45
2022-10-20T10:11:43.073Z,6.93
2022-10-20T10:13:52.856Z,6.70
2022-10-20T10:16:10.729Z,7.55
2022-10-20T10:18:25.300Z,6.72
2022-10-20T10:20:38.024Z,7.63
2022-10-20T10:22:46.997Z,6.75
2022-10-20T10:24:59.100Z,7.72
2022-10-20T10:27:07.343Z,6.22
2022-10-20T10:29:21.749Z,6.75
2022-10-20T10:31:30.059Z,8.93
2022-10-20T10:33:56.302Z,6.90
2022-10-20T10:36:10.377Z,7.82
2022-10-20T10:38:18.430Z,7.50
2022-10-20T10:40:35.996Z,6.53
2022-10-20T10:43:01.055Z,6.85
2022-10-20T10:45:20.426Z,6.65
2022-10-20T10:47:40.489Z,7.50
2022-10-20T10:50:00.864Z,7.85
2022-10-20T10:52:22.658Z,8.20
2022-10-20T10:55:02.365Z,7.03
2022-10-20T10:57:21.675Z,7.78
2022-10-20T10:59:35.593Z,7.90
2022-10-20T11:01:58.729Z,7.60
2022-10-20T11:04:50.906Z,8.45
2022-10-20T11:07:06.183Z,6.43
2022-10-20T11:09:28.000Z,7.35
2022-10-20T11:11:49.693Z,6.53
2022-10-20T11:14:14.083Z,8.40
2022-10-20T11:16:38.887Z,6.97
2022-10-20T11:19:10.780Z,8.05
2022-10-20T11:21:29.445Z,6.00
2022-10-20T11:24:01.978Z,6.25
2022-10-20T11:26:17.525Z,6.60
2022-10-20T11:28:33.429Z,6.65
2022-10-20T11:30:43.877Z,9.68
2022-10-20T11:32:58.573Z,6.70
2022-10-20T11:35:17.528Z,6.90
2022-10-20T11:37:29.321Z,6.38
2022-10-20T11:39:42.366Z,7.85
2022-10-20T11:41:52.418Z,10.43
2022-10-20T11:44:05.219Z,6.82
2022-10-20T11:46:20.030Z,6.60
2022-10-20T11:48:32.446Z,6.63
2022-10-20T11:50:40.823Z,8.20
2022-10-20T11:53:03.039Z,6.78
2022-10-20T11:55:35.945Z,8.43
2022-10-20T11:58:05.241Z,6.05
2022-10-20T12:00:38.874Z,6.72
2022-10-20T12:03:31.821Z,6.57
2022-10-20T12:05:57.858Z,8.40
2022-10-20T12:08:31.181Z,8.40
2022-10-20T12:10:45.913Z,7.22
2022-10-20T12:13:07.564Z,7.25
2022-10-20T12:15:24.481Z,7.63
2022-10-20T12:17:38.940Z,10.88
2022-10-20T12:19:53.008Z,6.85
2022-10-20T12:22:02.706Z,7.22
2022-10-20T12:24:33.847Z,7.45
2022-10-20T12:27:20.182Z,7.93
2022-10-20T12:29:51.259Z,8.20
2022-10-20T12:32:26.349Z,7.88
2022-10-20T12:34:42.641Z,8.20
2022-10-20T12:36:53.331Z,9.35
2022-10-20T12:39:19.831Z,8.60
2022-10-20T12:41:33.035Z,7.97
2022-10-20T12:43:55.125Z,8.75
2022-10-20T12:46:10.799Z,9.70
2022-10-20T12:48:24.051Z,8.23
2022-10-20T12:50:37.329Z,8.73
2022-10-20T12:52:48.869Z,9.43
2022-10-20T12:55:07.587Z,7.30
2022-10-20T12:57:35.814Z,7.35
2022-10-20T12:59:44.161Z,6.95
2022-10-20T13:02:22.149Z,7.70
2022-10-20T13:04:58.391Z,7.10
2022-10-20T13:07:06.451Z,8.57
2022-10-20T13:09:22.024Z,8.60
2022-10-20T13:11:47.789Z,7.80
2022-10-20T13:14:04.192Z,8.73
2022-10-20T13:16:21.716Z,8.88
2022-10-20T13:18:32.227Z,9.48
2022-10-20T13:20:48.934Z,8.27
2022-10-20T13:25:38.730Z,8.77
2022-10-20T13:27:46.974Z,9.23
2022-10-20T13:29:55.230Z,8.25
2022-10-20T13:32:12.394Z,8.35
2022-10-20T13:34:27.789Z,7.55
2022-10-20T13:36:50.289Z,10.40
2022-10-20T13:39:05.201Z,7.80
2022-10-20T13:41:22.948Z,8.60
2022-10-20T13:43:39.864Z,7.15
2022-10-20T13:46:11.606Z,9.38
2022-10-20T13:48:37.781Z,10.05
2022-10-20T13:50:49.522Z,7.53
2022-10-20T13:53:03.224Z,8.20
2022-10-20T13:55:17.778Z,7.05
2022-10-20T13:57:34.777Z,8.13
2022-10-20T13:59:58.489Z,7.20
2022-10-20T14:02:26.425Z,7.80
2022-10-20T14:04:36.984Z,7.72
2022-10-20T14:06:45.026Z,7.60
2022-10-20T14:08:53.186Z,6.90
2022-10-20T14:11:04.578Z,7.22
2022-10-20T14:13:19.664Z,7.32
2022-10-20T14:15:32.392Z,9.40
2022-10-20T14:17:40.955Z,7.75
2022-10-20T14:19:49.071Z,10.00
2022-10-20T14:21:59.137Z,8.70
2022-10-20T14:24:07.578Z,8.35
2022-10-20T14:26:18.832Z,7.03
2022-10-20T14:28:34.536Z,8.45
2022-10-20T14:30:42.810Z,11.38
2022-10-20T14:32:52.925Z,11.05
2022-10-20T14:35:02.741Z,10.15
2022-10-20T14:37:25.220Z,8.90
2022-10-20T14:39:39.943Z,8.80
2022-10-20T14:41:50.405Z,8.45
2022-10-20T14:44:06.508Z,9.98
2022-10-20T14:46:27.009Z,9.43
2022-10-20T14:48:41.546Z,9.15
2022-10-20T14:50:52.052Z,10.27
2022-10-20T14:53:00.135Z,14.20
2022-10-20T14:55:29.772Z,9.50
2022-10-20T14:57:47.295Z,11.43
2022-10-20T15:00:03.445Z,9.98
2022-10-20T15:02:18.784Z,11.45
2022-10-20T15:04:30.109Z,10.18
2022-10-20T15:06:40.189Z,10.85
2022-10-20T15:08:59.932Z,14.88
2022-10-20T15:11:24.661Z,12.93
2022-10-20T15:13:35.408Z,17.40
2022-10-20T15:15:46.404Z,13.20
2022-10-20T15:17:56.881Z,12.63
2022-10-20T15:20:37.566Z,12.70
2022-10-20T15:22:46.855Z,15.82
2022-10-20T15:24:55.437Z,13.13
2022-10-20T15:27:03.783Z,15.15
2022-10-20T15:29:13.517Z,12.27
2022-10-20T15:31:29.237Z,12.13
2022-10-20T15:33:37.402Z,12.75
2022-10-20T15:35:47.664Z,13.85
2022-10-20T15:37:57.097Z,14.48
2022-10-20T15:40:05.195Z,15.65
2022-10-20T15:42:14.407Z,15.10
2022-10-20T15:44:24.494Z,11.27
2022-10-20T15:46:35.312Z,12.88
2022-10-20T15:48:43.770Z,11.38
2022-10-20T15:50:54.148Z,10.70
2022-10-20T15:53:02.120Z,15.88
2022-10-20T15:55:22.937Z,11.18
2022-10-20T15:57:31.051Z,12.88
2022-10-20T15:59:39.100Z,14.52
2022-10-20T16:01:49.789Z,14.45
2022-10-20T16:03:57.967Z,13.70
2022-10-20T16:06:06.030Z,13.95
2022-10-20T16:10:24.515Z,18.50
2022-10-20T16:12:32.665Z,11.93
2022-10-20T16:14:41.041Z,16.42
2022-10-20T16:16:51.761Z,13.10
2022-10-20T16:18:59.735Z,12.90
2022-10-20T16:21:09.079Z,14.25
2022-10-20T16:23:17.412Z,14.70
2022-10-20T16:25:25.287Z,14.85
2022-10-20T16:27:34.900Z,15.55
2022-10-20T16:29:46.262Z,14.93
2022-10-20T16:32:00.035Z,14.57
2022-10-20T16:34:08.074Z,13.57
2022-10-20T16:36:18.265Z,14.02
2022-10-20T16:38:25.961Z,15.80
2022-10-20T16:40:33.737Z,14.85
2022-10-20T16:42:41.873Z,18.08
2022-10-20T16:44:49.895Z,19.25
2022-10-20T16:47:00.943Z,18.25
2022-10-20T16:49:09.346Z,20.13
2022-10-20T16:51:18.184Z,19.30
2022-10-20T16:53:26.505Z,19.20
2022-10-20T16:55:34.383Z,19.63
2022-10-20T16:57:42.730Z,21.77
2022-10-20T16:59:53.440Z,22.67
2022-10-20T17:02:03.884Z,21.00
2022-10-20T17:04:14.375Z,21.90
2022-10-20T17:06:24.480Z,21.27
2022-10-20T17:08:33.459Z,21.98
2022-10-20T17:10:42.898Z,22.65
2022-10-20T17:15:18.315Z,20.45
2022-10-20T17:17:28.992Z,21.33
2022-10-20T17:19:37.033Z,21.92
2022-10-20T17:21:45.635Z,25.77
2022-10-20T17:23:53.502Z,21.98
2022-10-20T17:26:03.996Z,21.90
2022-10-20T17:28:12.001Z,19.55
2022-10-20T17:30:22.208Z,24.40
2022-10-20T17:32:33.007Z,22.65
2022-10-20T17:34:40.768Z,23.27
2022-10-20T17:36:48.825Z,23.02
2022-10-20T17:38:59.114Z,23.95
2022-10-20T17:41:07.637Z,21.23
2022-10-20T17:43:18.602Z,20.60
2022-10-20T17:45:26.356Z,21.30
2022-10-20T17:47:43.223Z,21.00
2022-10-20T17:49:51.311Z,21.27
2022-10-20T17:51:59.522Z,21.10
2022-10-20T17:54:08.154Z,20.25
2022-10-20T17:56:17.973Z,20.77
2022-10-20T17:58:26.114Z,21.10
2022-10-20T18:00:54.911Z,21.83
2022-10-20T18:03:04.673Z,21.88
2022-10-20T18:05:12.625Z,20.08
2022-10-20T18:07:20.683Z,22.95
2022-10-20T18:09:28.521Z,19.85
2022-10-20T18:11:38.840Z,20.98
2022-10-20T18:13:47.379Z,22.77
2022-10-20T18:15:55.142Z,26.60
2022-10-20T18:18:05.858Z,20.83
2022-10-20T18:20:14.249Z,23.17
2022-10-20T18:22:22.084Z,20.58
2022-10-20T18:24:29.938Z,20.92
2022-10-20T18:26:39.826Z,19.42
2022-10-20T18:28:48.953Z,19.55
2022-10-20T18:30:58.855Z,20.75
2022-10-20T18:33:09.231Z,21.42
2022-10-20T18:35:17.419Z,20.02
2022-10-20T18:37:25.439Z,21.70
2022-10-20T18:39:34.553Z,21.60
2022-10-20T18:41:45.779Z,21.27
2022-10-20T18:43:57.948Z,22.02
2022-10-20T18:46:08.170Z,23.13
2022-10-20T18:48:18.631Z,19.52
2022-10-20T18:50:26.834Z,20.80
2022-10-20T18:52:34.859Z,23.98
2022-10-20T18:54:42.692Z,21.30
2022-10-20T18:56:50.549Z,23.13
2022-10-20T18:59:01.088Z,22.75
2022-10-20T19:01:10.861Z,22.67
2022-10-20T19:03:21.594Z,23.00
2022-10-20T19:05:29.435Z,22.50
2022-10-20T19:07:37.834Z,24.02
2022-10-20T19:09:45.869Z,22.02
2022-10-20T19:11:53.736Z,26.42
2022-10-20T19:14:03.522Z,27.50
2022-10-20T19:16:21.389Z,23.40
2022-10-20T19:18:35.693Z,23.80
2022-10-20T19:20:43.447Z,23.52
2022-10-20T19:22:51.321Z,24.08
2022-10-20T19:24:59.867Z,24.80
2022-10-20T19:27:25.555Z,29.02
2022-10-20T19:29:38.884Z,23.45
2022-10-20T19:31:51.506Z,25.48
2022-10-20T19:34:07.057Z,27.52
2022-10-20T19:36:15.233Z,25.85
2022-10-20T19:38:23.475Z,26.25
2022-10-20T19:40:33.626Z,28.65
2022-10-20T19:42:41.628Z,27.23
2022-10-20T19:44:49.828Z,25.63
2022-10-20T19:47:01.532Z,28.23
2022-10-20T19:49:14.745Z,25.30
2022-10-20T19:51:23.270Z,28.20
2022-10-20T19:53:33.745Z,24.40
2022-10-20T19:55:41.981Z,26.05
2022-10-20T19:57:50.344Z,26.88
2022-10-20T20:00:01.110Z,24.30
2022-10-20T20:02:10.022Z,29.25
2022-10-20T20:04:20.397Z,31.17
2022-10-20T20:06:41.326Z,24.90
2022-10-20T20:08:54.803Z,28.00
2022-10-20T20:11:04.539Z,27.02
2022-10-20T20:13:13.353Z,32.55
2022-10-20T20:15:42.554Z,28.13
2022-10-20T20:17:50.885Z,29.58
2022-10-20T20:20:02.244Z,28.75
2022-10-20T20:22:10.394Z,30.85
2022-10-20T20:24:18.254Z,31.00
2022-10-20T20:26:26.766Z,28.70
2022-10-20T20:28:34.864Z,27.35
2022-10-20T20:30:42.757Z,32.33
2022-10-20T20:32:54.213Z,26.25
2022-10-20T20:37:32.289Z,35.95
2022-10-20T20:39:40.641Z,28.48
2022-10-20T20:41:48.651Z,34.22
2022-10-20T20:43:57.108Z,29.45
2022-10-20T20:46:10.000Z,29.70
2022-10-20T20:48:19.715Z,28.08
2022-10-20T20:50:30.912Z,29.95
2022-10-20T20:52:38.913Z,26.95
2022-10-20T20:54:47.707Z,35.08
2022-10-20T20:56:55.368Z,26.90
2022-10-20T20:59:03.909Z,25.67
2022-10-20T21:01:15.579Z,27.40
2022-10-20T21:03:23.520Z,29.30
2022-10-20T21:05:46.938Z,29.30
2022-10-20T21:07:54.988Z,33.45
2022-10-20T21:10:02.742Z,30.95
2022-10-20T21:14:39.472Z,27.40
2022-10-20T21:16:48.398Z,30.48
2022-10-20T21:18:57.845Z,32.50
2022-10-20T21:21:14.000Z,31.45
2022-10-20T21:23:21.923Z,25.33
2022-10-20T21:25:29.995Z,27.23
2022-10-20T21:27:37.764Z,30.80
2022-10-20T21:29:46.435Z,31.60
2022-10-20T21:31:55.175Z,29.88
2022-10-20T21:34:04.916Z,30.10
2022-10-20T21:36:17.396Z,28.55
2022-10-20T21:38:29.171Z,26.85
2022-10-20T21:40:37.333Z,31.65
2022-10-20T21:42:47.719Z,31.15
2022-10-20T21:44:55.830Z,31.60
2022-10-20T21:47:03.558Z,28.80
2022-10-20T21:49:15.441Z,29.88
2022-10-20T21:51:27.631Z,28.48
2022-10-20T21:53:35.392Z,26.05
2022-10-20T21:55:43.139Z,28.02
2022-10-20T21:57:53.541Z,28.33
2022-10-20T22:00:01.173Z,25.45
2022-10-20T22:02:13.536Z,27.45
2022-10-20T22:04:23.013Z,29.42
2022-10-20T22:06:34.591Z,31.17
2022-10-20T22:08:44.698Z,30.27
2022-10-20T22:10:52.467Z,30.00
2022-10-20T22:13:00.578Z,31.73
2022-10-20T22:15:10.081Z,32.38
2022-10-20T22:17:17.849Z,26.75
2022-10-20T22:19:27.204Z,30.08
2022-10-20T22:21:38.902Z,24.95
2022-10-20T22:23:48.231Z,32.33
2022-10-20T22:25:56.447Z,40.22
2022-10-20T22:28:05.705Z,26.80
2022-10-20T22:30:14.370Z,28.83
2022-10-20T22:32:22.532Z,30.45
2022-10-20T22:34:31.135Z,30.75
2022-10-20T22:36:44.269Z,29.50
2022-10-20T22:38:52.602Z,29.80
2022-10-20T22:41:01.677Z,26.30
2022-10-20T22:43:09.629Z,28.23
2022-10-20T22:45:17.525Z,30.08
2022-10-20T22:47:25.731Z,30.80
2022-10-20T22:49:33.804Z,26.67
2022-10-20T22:51:44.258Z,26.05
2022-10-20T22:53:52.058Z,26.35
2022-10-20T22:56:00.527Z,27.92
2022-10-20T22:58:08.569Z,24.98
2022-10-20T23:00:22.160Z,27.58
2022-10-20T23:02:31.133Z,27.50
2022-10-20T23:04:39.465Z,30.08
2022-10-20T23:06:51.215Z,27.95
2022-10-20T23:08:59.679Z,34.22
2022-10-20T23:11:07.919Z,24.80
2022-10-20T23:13:15.830Z,29.20
2022-10-20T23:15:24.317Z,26.92
2022-10-20T23:17:32.438Z,28.45
2022-10-20T23:19:40.245Z,28.38
2022-10-20T23:21:53.176Z,29.38
2022-10-20T23:24:03.858Z,24.20
2022-10-20T23:26:16.801Z,24.50
2022-10-20T23:28:24.733Z,24.48
2022-10-20T23:30:32.778Z,24.52
2022-10-20T23:32:40.949Z,25.95
2022-10-20T23:34:49.050Z,27.17
2022-10-20T23:36:59.945Z,28.75
2022-10-20T23:39:07.796Z,24.55
2022-10-20T23:41:16.186Z,26.13
2022-10-20T23:43:24.609Z,30.63
2022-10-20T23:45:35.555Z,30.45
2022-10-20T23:47:45.512Z,29.00
2022-10-20T23:49:53.229Z,22.88
2022-10-20T23:52:04.183Z,23.38
2022-10-20T23:54:12.763Z,24.48
2022-10-20T23:56:20.850Z,23.25
2022-10-20T23:58:28.901Z,26.10
